Time;durP1;ratioP1;P1;durP2;ratioP2;P2;SDS_P1;SDS_P2;PMS_P1;PMS_P2;Temp;Humidity;BMP_temperature;BMP_pressure;BME280_temperature;BME280_humidity;BME280_pressure;Samples;Min_cycle;Max_cycle;Signal;HPM_P1;HPM_P2
2021/10/29 00:01:30;;;;;;;16.92;6.43;;;14.10;99.90;;;;;;5044538;28;20049;-81
2021/10/29 00:03:59;;;;;;;12.15;5.13;;;14.10;99.90;;;;;;5076520;28;20050;-82
2021/10/29 00:06:29;;;;;;;20.67;6.03;;;14.30;99.90;;;;;;5045534;28;20057;-80
2021/10/29 00:08:58;;;;;;;15.83;5.57;;;14.10;99.90;;;;;;5029602;28;20050;-82
2021/10/29 00:11:32;;;;;;;25.67;7.15;;;13.50;99.90;;;;;;5079311;28;20056;-81
2021/10/29 00:14:05;;;;;;;14.27;5.07;;;14.10;99.90;;;;;;5078225;28;20116;-80
2021/10/29 00:16:35;;;;;;;;;;;14.20;99.90;;;;;;5078621;28;20046;-82
2021/10/29 00:19:05;;;;;;;13.95;5.22;;;13.60;99.90;;;;;;5044513;28;19925;-81
2021/10/29 00:21:33;;;;;;;18.92;6.28;;;14.10;99.90;;;;;;5044864;28;20065;-82
2021/10/29 00:24:04;;;;;;;21.90;5.72;;;14.00;99.90;;;;;;5044701;28;20059;-82
2021/10/29 00:26:33;;;;;;;14.93;6.05;;;14.00;99.90;;;;;;5066181;28;20049;-81
2021/10/29 00:29:04;;;;;;;25.52;7.30;;;14.00;99.90;;;;;;5078908;28;20064;-82
2021/10/29 00:31:33;;;;;;;18.70;7.57;;;14.00;99.90;;;;;;5061532;28;20482;-83
2021/10/29 00:34:03;;;;;;;17.60;5.60;;;14.00;99.90;;;;;;5031957;28;20055;-82
2021/10/29 00:36:31;;;;;;;20.80;6.53;;;14.00;99.90;;;;;;5066478;28;20055;-82
2021/10/29 00:39:01;;;;;;;11.68;5.47;;;14.00;99.90;;;;;;5066897;28;20048;-80
2021/10/29 00:41:35;;;;;;;19.85;5.53;;;14.00;99.90;;;;;;5084431;28;20050;-82
2021/10/29 00:44:06;;;;;;;17.85;5.32;;;13.90;99.90;;;;;;5048508;28;20053;-81
2021/10/29 00:46:35;;;;;;;14.57;5.43;;;14.00;99.90;;;;;;5084343;28;20049;-81
2021/10/29 00:49:07;;;;;;;20.33;5.18;;;14.00;99.90;;;;;;5037232;28;20494;-82
2021/10/29 00:51:38;;;;;;;15.60;5.60;;;14.00;99.90;;;;;;5049650;28;20053;-82
2021/10/29 00:54:16;;;;;;;15.52;5.70;;;14.00;99.90;;;;;;5098381;28;20162;-83
2021/10/29 00:56:48;;;;;;;21.55;6.50;;;14.00;99.90;;;;;;5064773;28;20064;-83
2021/10/29 00:59:18;;;;;;;17.67;6.28;;;14.00;99.90;;;;;;5064179;28;20041;-84
2021/10/29 01:01:47;;;;;;;12.10;6.40;;;14.10;99.90;;;;;;5045112;28;20056;-83
2021/10/29 01:04:16;;;;;;;18.58;6.18;;;14.00;99.90;;;;;;5072720;28;20053;-82
2021/10/29 01:06:46;;;;;;;21.20;7.30;;;14.00;99.90;;;;;;5084088;28;20056;-83
2021/10/29 01:09:15;;;;;;;15.23;6.22;;;14.10;99.90;;;;;;5055476;28;20059;-82
2021/10/29 01:11:44;;;;;;;22.67;5.28;;;14.10;99.90;;;;;;5099907;28;20041;-81
2021/10/29 01:14:12;;;;;;;19.73;8.45;;;14.10;99.90;;;;;;5064842;28;20039;-81
2021/10/29 01:16:40;;;;;;;19.05;5.45;;;14.10;99.90;;;;;;5031973;28;20053;-81
2021/10/29 01:19:10;;;;;;;27.67;6.53;;;14.10;99.90;;;;;;5061508;28;20053;-82
2021/10/29 01:21:39;;;;;;;19.25;5.28;;;14.00;99.90;;;;;;5050671;28;20041;-84
2021/10/29 01:24:08;;;;;;;20.45;5.05;;;14.10;99.90;;;;;;5049800;28;20037;-82
2021/10/29 01:26:36;;;;;;;24.17;7.43;;;14.10;99.90;;;;;;5036118;28;20060;-81
2021/10/29 01:29:07;;;;;;;13.80;5.45;;;14.00;99.90;;;;;;5052429;28;20045;-81
2021/10/29 01:31:35;;;;;;;15.65;6.43;;;14.00;99.90;;;;;;5083846;28;20044;-81
2021/10/29 01:34:04;;;;;;;16.35;6.18;;;14.10;99.90;;;;;;5043452;28;20044;-82
2021/10/29 01:36:32;;;;;;;24.88;8.50;;;14.10;99.90;;;;;;5067228;28;20048;-82
2021/10/29 01:39:01;;;;;;;20.70;5.47;;;14.10;99.90;;;;;;5055194;28;20056;-80
2021/10/29 01:41:32;;;;;;;12.32;5.03;;;14.10;99.90;;;;;;5064245;28;20049;-81
2021/10/29 01:44:02;;;;;;;22.45;5.70;;;13.50;99.90;;;;;;5074228;28;20064;-81
2021/10/29 01:46:33;;;;;;;23.20;5.82;;;14.10;99.90;;;;;;5050249;28;20050;-81
2021/10/29 01:49:06;;;;;;;19.98;5.65;;;14.10;99.90;;;;;;5080752;28;20041;-82
2021/10/29 01:51:40;;;;;;;13.27;4.85;;;14.20;99.90;;;;;;5063642;28;20053;-83
2021/10/29 01:54:11;;;;;;;15.73;5.00;;;14.10;99.90;;;;;;5059736;28;20051;-83
2021/10/29 01:56:44;;;;;;;13.30;4.50;;;14.20;99.90;;;;;;5050314;28;20061;-83
2021/10/29 01:59:12;;;;;;;14.20;5.25;;;14.20;99.90;;;;;;5101680;28;20060;-83
2021/10/29 02:01:40;;;;;;;21.02;5.07;;;14.10;99.90;;;;;;5069416;28;20445;-83
2021/10/29 02:04:14;;;;;;;20.13;4.38;;;14.20;99.90;;;;;;5071620;28;20055;-84
2021/10/29 02:06:44;;;;;;;17.33;6.22;;;14.20;99.90;;;;;;5070558;28;20053;-86
2021/10/29 02:09:12;;;;;;;21.88;5.65;;;14.20;99.90;;;;;;5084528;28;20053;-84
2021/10/29 02:11:45;;;;;;;15.50;5.10;;;14.20;99.90;;;;;;5055642;28;20059;-83
2021/10/29 02:14:16;;;;;;;19.73;6.20;;;14.20;99.90;;;;;;5047401;28;20041;-83
2021/10/29 02:16:45;;;;;;;18.70;5.72;;;14.20;99.90;;;;;;5047333;28;20046;-83
2021/10/29 02:19:14;;;;;;;29.67;6.57;;;14.20;99.90;;;;;;5053208;28;20052;-83
2021/10/29 02:21:44;;;;;;;19.95;6.32;;;14.30;99.90;;;;;;5048815;28;20048;-83
2021/10/29 02:24:18;;;;;;;20.60;5.93;;;14.20;99.90;;;;;;5047837;28;20049;-83
2021/10/29 02:26:46;;;;;;;17.35;5.38;;;14.30;99.90;;;;;;5047078;28;20055;-85
2021/10/29 02:29:18;;;;;;;18.33;6.65;;;14.20;99.90;;;;;;5049001;28;20045;-84
2021/10/29 02:31:48;;;;;;;16.10;4.07;;;13.80;99.90;;;;;;5061773;28;20045;-81
2021/10/29 02:34:21;;;;;;;21.10;7.67;;;14.20;99.90;;;;;;5065554;28;20051;-84
2021/10/29 02:36:51;;;;;;;18.88;6.10;;;14.10;99.90;;;;;;5052400;28;20049;-82
2021/10/29 02:39:19;;;;;;;14.68;5.53;;;14.20;99.90;;;;;;5041889;28;20049;-84
2021/10/29 02:41:49;;;;;;;14.93;5.03;;;14.10;99.90;;;;;;5066110;28;20053;-83
2021/10/29 02:44:18;;;;;;;28.80;8.20;;;14.00;99.90;;;;;;5077329;28;20063;-82
2021/10/29 02:46:48;;;;;;;28.85;7.28;;;14.10;99.90;;;;;;5081990;28;20045;-84
2021/10/29 02:49:18;;;;;;;16.00;5.75;;;14.00;99.90;;;;;;5060264;28;20063;-85
2021/10/29 02:51:49;;;;;;;19.70;7.43;;;14.10;99.90;;;;;;5035849;28;20081;-81
2021/10/29 02:54:24;;;;;;;18.45;5.03;;;14.10;99.90;;;;;;5086755;28;20049;-83
2021/10/29 02:56:57;;;;;;;21.05;5.50;;;14.10;99.90;;;;;;5052155;28;20049;-82
2021/10/29 02:59:25;;;;;;;19.45;5.82;;;14.10;99.90;;;;;;5100673;28;20048;-85
2021/10/29 03:01:57;;;;;;;21.00;6.18;;;14.10;99.90;;;;;;5079911;28;20360;-83
2021/10/29 03:04:56;;;;;;;17.13;5.17;;;14.10;99.90;;;;;;5045984;28;20208;-83
2021/10/29 03:07:58;;;;;;;28.35;7.65;;;14.10;99.90;;;;;;5107181;22;20048;-93
2021/10/29 03:10:48;;;;;;;16.00;5.95;;;14.10;99.90;;;;;;5075795;28;20055;-93
2021/10/29 03:13:34;;;;;;;15.10;5.47;;;14.20;99.90;;;;;;5092550;28;20053;-93
2021/10/29 03:16:19;;;;;;;28.45;7.40;;;14.10;99.90;;;;;;5057943;28;20048;-92
2021/10/29 03:19:55;;;;;;;18.65;6.13;;;14.10;99.90;;;;;;5023375;28;20063;-93
2021/10/29 03:22:44;;;;;;;17.25;5.55;;;14.10;99.90;;;;;;5070512;28;20049;-91
2021/10/29 03:25:28;;;;;;;22.65;6.47;;;14.10;99.90;;;;;;5068604;28;20059;-92
2021/10/29 03:28:36;;;;;;;22.67;6.28;;;14.10;99.90;;;;;;5028908;28;20036;-92
2021/10/29 03:31:20;;;;;;;21.08;5.22;;;14.10;99.90;;;;;;5040705;28;20116;-93
2021/10/29 03:33:56;;;;;;;16.30;5.38;;;14.10;99.90;;;;;;5060397;28;20463;-93
2021/10/29 03:37:10;;;;;;;19.70;6.93;;;14.10;99.90;;;;;;5065017;28;20048;-92
2021/10/29 03:40:04;;;;;;;18.67;5.35;;;14.10;99.90;;;;;;5068440;28;20052;-93
2021/10/29 03:42:42;;;;;;;18.65;6.47;;;14.00;99.90;;;;;;5075414;28;20055;-93
2021/10/29 03:45:18;;;;;;;21.15;7.35;;;14.00;99.90;;;;;;5074132;28;20052;-92
2021/10/29 03:48:06;;;;;;;19.08;5.68;;;14.10;99.90;;;;;;5054618;28;20051;-93
2021/10/29 03:54:12;;;;;;;17.45;6.65;;;14.10;99.90;;;;;;5035031;28;20054;-92
2021/10/29 03:59:50;;;;;;;21.00;7.45;;;13.00;99.90;;;;;;5035962;28;20049;-94
2021/10/29 04:02:35;;;;;;;21.00;6.00;;;14.00;99.90;;;;;;5056727;28;20048;-92
2021/10/29 04:05:21;;;;;;;23.83;7.57;;;13.10;99.90;;;;;;5010718;28;20055;-93
2021/10/29 04:08:24;;;;;;;17.33;6.95;;;14.00;99.90;;;;;;5052607;28;20057;-93
2021/10/29 04:11:01;;;;;;;25.75;8.43;;;14.00;99.90;;;;;;5045540;28;20059;-93
2021/10/29 04:13:40;;;;;;;17.55;6.82;;;14.10;99.90;;;;;;5063354;28;20057;-91
2021/10/29 04:16:14;;;;;;;23.77;10.77;;;14.10;99.90;;;;;;5073701;28;20058;-94
2021/10/29 04:22:14;;;;;;;19.13;8.95;;;14.20;99.90;;;;;;5046879;28;20439;-94
2021/10/29 04:25:02;;;;;;;18.45;7.10;;;14.30;99.90;;;;;;5041111;28;20033;-94
2021/10/29 04:28:00;;;;;;;19.65;8.27;;;14.40;99.90;;;;;;5049762;28;20057;-92
2021/10/29 04:30:44;;;;;;;12.48;6.22;;;14.40;99.90;;;;;;5039188;28;20049;-93
2021/10/29 04:33:32;;;;;;;22.02;6.88;;;14.40;99.90;;;;;;5057147;28;20047;-94
2021/10/29 04:36:20;;;;;;;21.45;7.80;;;14.40;99.90;;;;;;5084901;28;20056;-93
2021/10/29 04:39:13;;;;;;;19.23;8.20;;;14.50;99.90;;;;;;5051059;28;20061;-93
2021/10/29 04:42:05;;;;;;;22.08;7.07;;;14.50;99.90;;;;;;5064713;28;20055;-93
2021/10/29 04:45:05;;;;;;;15.82;7.07;;;14.50;99.90;;;;;;5018802;28;20497;-91
2021/10/29 04:47:50;;;;;;;22.95;7.15;;;14.60;99.90;;;;;;5037319;28;20044;-94
2021/10/29 04:50:34;;;;;;;19.63;8.00;;;14.50;99.90;;;;;;5057176;28;20064;-91
2021/10/29 04:53:11;;;;;;;25.33;9.55;;;14.60;99.90;;;;;;5044953;28;20049;-94
2021/10/29 04:56:20;;;;;;;36.97;9.48;;;14.60;99.90;;;;;;5065763;28;20055;-90
2021/10/29 04:58:56;;;;;;;29.45;8.98;;;14.60;99.90;;;;;;5067037;28;20049;-92
2021/10/29 05:01:26;;;;;;;24.35;7.15;;;14.60;99.90;;;;;;5051404;28;20055;-93
2021/10/29 05:04:02;;;;;;;16.55;7.13;;;14.60;99.90;;;;;;5079160;28;20049;-92
2021/10/29 05:06:56;;;;;;;19.77;7.03;;;14.60;99.90;;;;;;5053291;28;20045;-92
2021/10/29 05:10:34;;;;;;;20.05;7.93;;;14.50;99.90;;;;;;5044123;28;20052;-93
2021/10/29 05:13:26;;;;;;;25.92;7.47;;;15.30;99.90;;;;;;5018772;28;20049;-93
2021/10/29 05:16:11;;;;;;;14.40;5.78;;;15.30;99.90;;;;;;5019651;28;20053;-93
2021/10/29 05:19:13;;;;;;;18.58;7.15;;;14.70;99.90;;;;;;5055633;28;20063;-94
2021/10/29 05:22:29;;;;;;;26.38;8.25;;;14.40;99.90;;;;;;5029579;28;20052;-91
2021/10/29 05:25:18;;;;;;;16.90;7.38;;;14.40;99.90;;;;;;5036816;28;20056;-93
2021/10/29 05:28:37;;;;;;;18.25;7.72;;;15.00;99.90;;;;;;5075001;28;20059;-94
2021/10/29 05:31:41;;;;;;;14.57;5.82;;;14.40;99.90;;;;;;5088744;28;20052;-93
2021/10/29 05:34:32;;;;;;;16.60;6.60;;;14.20;99.90;;;;;;5094110;28;20049;-93
2021/10/29 05:37:34;;;;;;;25.00;7.47;;;13.80;99.90;;;;;;5065002;28;20059;-83
2021/10/29 05:40:05;;;;;;;19.70;6.43;;;14.20;99.90;;;;;;5047603;28;20057;-82
2021/10/29 05:42:34;;;;;;;17.13;7.00;;;14.10;99.90;;;;;;5075628;28;20294;-82
2021/10/29 05:45:06;;;;;;;16.20;6.82;;;14.10;99.90;;;;;;5079745;28;20051;-84
2021/10/29 05:47:39;;;;;;;16.35;6.95;;;14.10;99.90;;;;;;5063342;28;20063;-82
2021/10/29 05:50:11;;;;;;;19.42;7.72;;;14.10;99.90;;;;;;5079803;28;20064;-82
2021/10/29 05:52:42;;;;;;;17.25;6.00;;;14.10;99.90;;;;;;5063241;28;20140;-82
2021/10/29 05:57:51;;;;;;;11.27;6.10;;;14.00;99.90;;;;;;5046813;28;20061;-81
2021/10/29 06:00:23;;;;;;;12.52;4.90;;;13.90;99.90;;;;;;5062379;28;20053;-82
2021/10/29 06:02:52;;;;;;;21.70;5.72;;;13.90;99.90;;;;;;5068973;28;20059;-81
2021/10/29 06:05:20;;;;;;;13.27;5.50;;;13.90;99.90;;;;;;5059766;28;20079;-81
2021/10/29 06:07:51;;;;;;;12.82;5.45;;;13.90;99.90;;;;;;5063111;28;20045;-83
2021/10/29 06:10:37;;;;;;;15.27;5.18;;;13.80;99.90;;;;;;5062703;28;20041;-84
2021/10/29 06:13:13;;;;;;;15.80;5.18;;;14.60;99.90;;;;;;5063056;28;20048;-85
2021/10/29 06:15:43;;;;;;;13.45;4.85;;;13.70;99.90;;;;;;5061055;28;20049;-82
2021/10/29 06:18:22;;;;;;;16.23;5.78;;;13.70;99.90;;;;;;5063462;28;20049;-84
2021/10/29 06:20:57;;;;;;;12.32;3.95;;;13.70;99.90;;;;;;5045197;28;20458;-82
2021/10/29 06:23:36;;;;;;;10.25;4.38;;;13.70;99.90;;;;;;5064569;28;20052;-82
2021/10/29 06:26:18;;;;;;;13.73;5.78;;;13.60;99.90;;;;;;5079905;28;20051;-81
2021/10/29 06:28:46;;;;;;;10.65;4.53;;;13.60;99.90;;;;;;5064177;28;20064;-81
2021/10/29 06:31:17;;;;;;;13.90;4.22;;;13.60;99.90;;;;;;5047225;28;20045;-82
2021/10/29 06:34:00;;;;;;;;;;;;;;;;;;;;;
2021/10/29 06:37:29;;;;;;;10.63;3.90;;;13.50;99.90;;;;;;5021158;28;20049;-84
2021/10/29 06:40:55;;;;;;;;;;;;;;;;;;;;;
2021/10/29 06:44:42;;;;;;;14.40;4.25;;;13.50;99.90;;;;;;4925637;29;20060;-85
2021/10/29 07:45:07;;;;;;;;;;;;;;;;;;;;;
2021/10/29 07:53:16;;;;;;;6.63;3.50;;;13.40;99.90;;;;;;5007906;28;20054;-85
2021/10/29 07:57:20;;;;;;;9.35;3.17;;;13.30;99.90;;;;;;4939868;29;20060;-85
2021/10/29 08:08:45;;;;;;;11.25;3.55;;;13.00;99.90;;;;;;5011991;28;20053;-87
2021/10/29 08:11:16;;;;;;;8.98;3.75;;;13.40;99.90;;;;;;4976299;28;20053;-87
2021/10/29 08:13:44;;;;;;;12.30;4.73;;;13.50;99.90;;;;;;5009148;28;20046;-87
2021/10/29 08:16:12;;;;;;;16.08;3.90;;;13.50;99.90;;;;;;4999626;28;20050;-88
2021/10/29 08:18:43;;;;;;;14.82;3.95;;;13.50;99.90;;;;;;4986827;28;20042;-87
2021/10/29 08:21:13;;;;;;;15.13;4.97;;;13.50;99.90;;;;;;4980785;28;20074;-86
2021/10/29 08:23:47;;;;;;;13.07;5.70;;;13.50;99.90;;;;;;4989093;28;20042;-85
2021/10/29 08:26:16;;;;;;;14.27;5.25;;;13.70;99.90;;;;;;5000617;28;20049;-87
2021/10/29 08:28:47;;;;;;;17.15;4.78;;;13.60;99.90;;;;;;4986616;28;20069;-86
2021/10/29 08:31:15;;;;;;;16.13;5.65;;;13.70;99.90;;;;;;4987123;28;20042;-87
2021/10/29 08:33:43;;;;;;;13.18;5.90;;;13.70;99.90;;;;;;5003267;28;20046;-87
2021/10/29 08:36:16;;;;;;;15.60;4.72;;;13.80;99.90;;;;;;4985238;28;20045;-88
2021/10/29 08:38:46;;;;;;;13.02;4.97;;;13.80;99.90;;;;;;4988899;28;20486;-88
2021/10/29 08:41:28;;;;;;;13.18;5.40;;;13.90;99.90;;;;;;4988802;28;20046;-87
2021/10/29 08:43:56;;;;;;;14.10;4.22;;;13.90;99.90;;;;;;4943444;28;20562;-88
2021/10/29 08:46:29;;;;;;;14.32;5.38;;;14.00;99.90;;;;;;4982131;28;20046;-88
2021/10/29 08:48:58;;;;;;;16.05;5.85;;;14.10;99.90;;;;;;5005041;28;20047;-89
2021/10/29 08:51:27;;;;;;;13.82;5.85;;;14.10;99.90;;;;;;4978269;28;20533;-89
2021/10/29 08:53:57;;;;;;;14.43;4.97;;;14.10;99.90;;;;;;4989010;28;20668;-90
2021/10/29 08:56:27;;;;;;;13.80;5.28;;;14.20;99.90;;;;;;5001201;28;20046;-89
2021/10/29 08:59:08;;;;;;;16.90;6.37;;;14.30;99.90;;;;;;4986121;28;20050;-89
2021/10/29 09:33:01;;;;;;;13.02;5.88;;;14.70;99.90;;;;;;4990203;28;20054;-89
2021/10/29 09:35:35;;;;;;;19.65;5.63;;;14.80;99.90;;;;;;5007388;28;20042;-89
2021/10/29 09:38:12;;;;;;;17.83;5.30;;;14.90;99.90;;;;;;5005550;28;20057;-90
2021/10/29 09:41:02;;;;;;;24.60;6.07;;;14.90;99.90;;;;;;5001997;28;20046;-89
2021/10/29 09:44:09;;;;;;;23.48;4.95;;;15.00;99.90;;;;;;4980424;28;20050;-91
2021/10/29 09:46:57;;;;;;;21.52;5.30;;;15.00;99.90;;;;;;4992298;28;20065;-90
2021/10/29 09:49:32;;;;;;;14.63;5.47;;;15.00;99.90;;;;;;5009165;28;20047;-89
2021/10/29 09:57:19;;;;;;;16.15;4.43;;;15.10;99.90;;;;;;4984034;28;20051;-90
2021/10/29 09:59:55;;;;;;;16.95;4.15;;;15.10;99.90;;;;;;4990191;28;20054;-88
2021/10/29 10:02:25;;;;;;;11.70;4.82;;;15.20;99.90;;;;;;4988183;28;20046;-89
2021/10/29 10:05:02;;;;;;;14.02;4.80;;;15.30;99.90;;;;;;4979359;28;20050;-89
2021/10/29 10:07:35;;;;;;;15.65;4.30;;;15.40;99.90;;;;;;5001993;28;20054;-89
2021/10/29 10:10:09;;;;;;;13.10;3.80;;;15.50;99.90;;;;;;4994064;28;20042;-87
2021/10/29 10:12:42;;;;;;;15.55;4.63;;;15.60;99.90;;;;;;5003805;28;20046;-88
2021/10/29 10:15:20;;;;;;;17.15;6.20;;;15.70;99.90;;;;;;4998100;28;20042;-89
2021/10/29 10:17:52;;;;;;;20.15;6.60;;;15.90;99.90;;;;;;4994472;28;20048;-87
2021/10/29 10:20:24;;;;;;;17.55;4.30;;;15.90;99.90;;;;;;5010066;28;20063;-89
2021/10/29 10:23:02;;;;;;;14.40;3.78;;;15.90;99.90;;;;;;4988646;28;20050;-88
2021/10/29 10:28:37;;;;;;;16.73;4.10;;;16.10;99.90;;;;;;5011360;28;20059;-89
2021/10/29 10:40:44;;;;;;;17.60;3.72;;;16.10;99.90;;;;;;4985545;28;20057;-92
2021/10/29 10:46:05;;;;;;;10.35;3.50;;;16.10;99.90;;;;;;4977074;28;20061;-88
2021/10/29 10:48:45;;;;;;;11.65;3.03;;;16.00;99.90;;;;;;4976898;28;20209;-87
2021/10/29 10:54:30;;;;;;;15.07;4.00;;;16.00;99.90;;;;;;4997796;28;20046;-90
2021/10/29 11:10:57;;;;;;;22.45;5.90;;;15.80;99.90;;;;;;4996673;28;20047;-87
2021/10/29 11:13:47;;;;;;;14.13;5.47;;;15.70;99.90;;;;;;4988658;28;20065;-87
2021/10/29 11:16:17;;;;;;;14.13;4.15;;;15.60;99.90;;;;;;5013123;28;20047;-86
2021/10/29 11:19:14;;;;;;;11.98;3.00;;;15.50;99.90;;;;;;4986736;28;20053;-86
2021/10/29 11:21:55;;;;;;;13.98;3.03;;;15.40;99.90;;;;;;4988129;28;20066;-88
2021/10/29 11:24:47;;;;;;;16.73;4.03;;;15.30;99.90;;;;;;4970749;28;20054;-88
2021/10/29 11:27:18;;;;;;;22.48;4.15;;;15.30;99.90;;;;;;4986824;28;20057;-86
2021/10/29 11:29:48;;;;;;;13.90;3.50;;;15.40;99.90;;;;;;4991557;28;20051;-88
2021/10/29 11:32:23;;;;;;;18.13;3.40;;;15.40;99.90;;;;;;4988814;28;20053;-87
2021/10/29 11:34:59;;;;;;;17.90;3.00;;;15.40;99.90;;;;;;4993810;28;20039;-86
2021/10/29 11:37:30;;;;;;;9.93;2.60;;;15.40;99.90;;;;;;5008605;28;20047;-87
2021/10/29 11:40:00;;;;;;;9.75;2.28;;;15.60;99.90;;;;;;4992227;28;20050;-87
2021/10/29 11:42:29;;;;;;;;;;;15.80;99.90;;;;;;4979621;28;20050;-88
2021/10/29 11:45:00;;;;;;;13.95;3.17;;;15.60;99.90;;;;;;4985736;28;19926;-87
2021/10/29 11:47:32;;;;;;;12.52;3.08;;;15.60;99.90;;;;;;4974090;28;20042;-88
2021/10/29 11:50:08;;;;;;;17.33;3.65;;;15.70;99.90;;;;;;4999779;28;20069;-88
2021/10/29 11:52:42;;;;;;;9.57;3.55;;;15.60;99.90;;;;;;4993892;28;20057;-86
2021/10/29 11:55:36;;;;;;;14.35;2.90;;;15.50;99.90;;;;;;4965563;28;20544;-87
2021/10/29 11:58:18;;;;;;;20.38;2.88;;;15.40;99.90;;;;;;4991799;28;20039;-92
2021/10/29 12:09:27;;;;;;;15.00;3.00;;;15.50;99.90;;;;;;4993254;28;20047;-89
2021/10/29 12:12:07;;;;;;;10.35;3.30;;;16.40;99.90;;;;;;4993484;28;20049;-90
2021/10/29 12:14:40;;;;;;;18.98;3.30;;;15.60;99.90;;;;;;4964377;28;20073;-87
2021/10/29 12:20:07;;;;;;;15.30;2.78;;;15.50;99.90;;;;;;4980483;28;20046;-87
2021/10/29 12:22:50;;;;;;;13.17;2.27;;;15.50;99.90;;;;;;4987202;28;20046;-87
2021/10/29 12:25:41;;;;;;;11.80;3.37;;;15.50;99.90;;;;;;4991927;28;20532;-88
2021/10/29 12:30:56;;;;;;;8.38;2.92;;;15.60;99.90;;;;;;4995537;28;20042;-88
2021/10/29 12:54:30;;;;;;;8.00;1.95;;;15.60;99.90;;;;;;4997630;28;20054;-87
2021/10/29 13:02:34;;;;;;;10.43;1.95;;;15.80;99.90;;;;;;4652012;28;10000776;-86
2021/10/29 13:05:10;;;;;;;14.63;2.03;;;15.90;99.90;;;;;;5003652;28;20178;-90
2021/10/29 13:07:38;;;;;;;9.50;1.42;;;15.90;99.90;;;;;;4997826;28;20042;-87
2021/10/29 13:10:10;;;;;;;7.88;2.28;;;15.90;99.90;;;;;;4979189;28;20050;-85
2021/10/29 13:12:46;;;;;;;5.38;1.77;;;15.90;99.90;;;;;;4977268;28;20069;-86
2021/10/29 13:15:20;;;;;;;3.08;1.90;;;15.90;99.90;;;;;;4995132;28;20595;-88
2021/10/29 13:18:33;;;;;;;6.38;1.60;;;15.90;99.90;;;;;;4994367;28;20054;-86
2021/10/29 13:24:08;;;;;;;6.40;1.50;;;15.70;99.90;;;;;;4998380;28;20050;-88
2021/10/29 13:26:46;;;;;;;12.25;1.63;;;15.70;99.90;;;;;;4997703;28;20046;-87
2021/10/29 13:54:36;;;;;;;7.55;1.58;;;15.60;99.90;;;;;;4977456;28;20046;-87
2021/10/29 14:02:46;;;;;;;2.75;0.82;;;15.50;99.90;;;;;;4991733;28;20051;-87
2021/10/29 14:17:03;;;;;;;5.13;2.38;;;14.70;99.90;;;;;;5004022;28;20042;-88
2021/10/29 14:30:32;;;;;;;1.33;0.85;;;13.90;99.90;;;;;;4975113;28;20054;-87
2021/10/29 14:33:07;;;;;;;4.07;0.90;;;13.90;99.90;;;;;;4996259;28;20045;-88
2021/10/29 14:35:40;;;;;;;2.78;1.50;;;13.90;99.90;;;;;;4991758;28;20058;-87
2021/10/29 14:40:40;;;;;;;3.75;1.92;;;13.90;99.90;;;;;;4994496;28;20065;-88
2021/10/29 14:48:39;;;;;;;5.38;2.50;;;14.20;99.90;;;;;;5007895;28;20069;-88
2021/10/29 15:04:49;;;;;;;6.43;1.33;;;15.10;99.90;;;;;;4993015;28;20050;-87
2021/10/29 15:29:53;;;;;;;1.35;0.80;;;14.60;99.90;;;;;;4964466;28;20058;-90
2021/10/29 15:51:37;;;;;;;4.50;1.10;;;14.00;99.90;;;;;;5009104;28;20046;-89
2021/10/29 15:54:11;;;;;;;4.65;1.00;;;13.90;99.90;;;;;;4987901;28;20518;-88
2021/10/29 15:56:46;;;;;;;6.50;1.15;;;13.90;99.90;;;;;;4990759;28;20050;-89
2021/10/29 16:02:05;;;;;;;4.13;1.47;;;13.90;99.90;;;;;;4970636;28;20050;-87
2021/10/29 16:18:48;;;;;;;7.90;2.53;;;13.40;99.90;;;;;;4995981;28;20054;-87
2021/10/29 16:21:16;;;;;;;5.50;1.67;;;13.40;99.90;;;;;;4980034;28;20050;-89
2021/10/29 16:23:45;;;;;;;9.50;2.30;;;13.30;99.90;;;;;;4972429;28;20062;-87
2021/10/29 16:26:17;;;;;;;9.20;2.22;;;13.30;99.90;;;;;;4996913;28;20042;-88
2021/10/29 16:28:48;;;;;;;6.57;1.75;;;13.20;99.90;;;;;;4994106;28;20062;-88
2021/10/29 16:31:22;;;;;;;9.88;2.13;;;13.20;99.90;;;;;;4969802;28;20501;-87
2021/10/29 16:33:51;;;;;;;11.77;1.80;;;13.10;99.90;;;;;;4989368;28;20042;-88
2021/10/29 16:36:19;;;;;;;5.07;1.60;;;13.10;99.90;;;;;;4989877;28;20246;-88
2021/10/29 16:38:49;;;;;;;4.28;1.77;;;13.00;99.90;;;;;;4975995;28;20078;-89
2021/10/29 16:41:17;;;;;;;2.72;1.20;;;13.00;99.90;;;;;;4962385;28;20428;-89
2021/10/29 16:43:46;;;;;;;2.88;1.33;;;12.90;99.90;;;;;;4974063;28;20069;-88
2021/10/29 16:46:14;;;;;;;3.75;1.45;;;12.90;99.90;;;;;;4976512;28;20058;-90
2021/10/29 16:48:43;;;;;;;7.53;1.63;;;12.80;99.90;;;;;;4987738;28;20046;-88
2021/10/29 16:51:14;;;;;;;6.32;2.70;;;12.70;99.90;;;;;;4989338;28;20054;-89
2021/10/29 16:53:43;;;;;;;3.22;1.55;;;12.70;99.90;;;;;;4975730;28;20065;-89
2021/10/29 16:56:13;;;;;;;20.17;3.40;;;12.60;99.90;;;;;;4984700;28;20375;-88
2021/10/29 16:58:42;;;;;;;4.82;1.80;;;12.60;99.90;;;;;;4970224;28;20387;-89
2021/10/29 17:01:12;;;;;;;7.18;3.35;;;12.50;99.90;;;;;;4987002;28;20073;-89
2021/10/29 17:03:41;;;;;;;2.70;1.58;;;12.50;99.90;;;;;;4988992;28;20047;-90
2021/10/29 17:06:09;;;;;;;3.65;1.75;;;12.40;99.90;;;;;;4971102;28;20061;-89
2021/10/29 17:08:41;;;;;;;8.50;1.90;;;12.40;99.90;;;;;;4970639;28;20050;-88
2021/10/29 17:11:13;;;;;;;8.45;2.35;;;12.30;99.90;;;;;;4965819;28;20055;-88
2021/10/29 17:13:42;;;;;;;7.15;2.17;;;12.30;99.90;;;;;;4966433;28;20055;-87
2021/10/29 17:16:10;;;;;;;8.68;2.78;;;12.30;99.90;;;;;;4983625;28;20039;-87
2021/10/29 17:18:38;;;;;;;8.27;2.92;;;12.30;99.90;;;;;;4991330;28;20058;-88
2021/10/29 17:21:07;;;;;;;8.93;3.10;;;12.20;99.90;;;;;;4975120;28;20046;-88
2021/10/29 17:23:38;;;;;;;14.45;3.00;;;12.20;99.90;;;;;;4990125;28;20050;-88
2021/10/29 17:26:10;;;;;;;;;;;12.10;99.90;;;;;;4975185;28;20054;-88
2021/10/29 17:28:38;;;;;;;16.30;4.78;;;12.10;99.90;;;;;;4979555;28;19936;-87
2021/10/29 17:31:06;;;;;;;18.17;3.80;;;12.10;99.90;;;;;;4991827;28;20053;-87
2021/10/29 17:33:35;;;;;;;21.73;5.00;;;12.00;99.90;;;;;;4975387;28;20053;-88
2021/10/29 17:36:03;;;;;;;18.00;3.55;;;12.00;99.90;;;;;;4993339;28;20062;-91
2021/10/29 17:38:33;;;;;;;13.32;3.42;;;11.90;99.90;;;;;;4995646;28;20061;-89
2021/10/29 17:41:05;;;;;;;11.95;2.80;;;11.90;99.90;;;;;;4989921;28;20045;-89
2021/10/29 17:43:34;;;;;;;11.88;3.70;;;11.80;99.90;;;;;;4975909;28;20054;-89
2021/10/29 17:46:05;;;;;;;18.90;4.55;;;11.80;99.90;;;;;;4976412;28;20564;-90
2021/10/29 17:48:37;;;;;;;16.67;4.65;;;11.80;99.90;;;;;;4978929;28;20042;-91
2021/10/29 17:51:20;;;;;;;20.33;3.65;;;11.70;99.90;;;;;;4980659;28;20613;-90
2021/10/29 17:53:51;;;;;;;19.42;6.03;;;11.70;99.90;;;;;;4995594;28;20062;-90
2021/10/29 17:56:20;;;;;;;25.25;8.00;;;11.70;99.90;;;;;;4972414;28;20053;-89
2021/10/29 17:58:50;;;;;;;29.83;10.27;;;11.60;99.90;;;;;;4959323;28;20050;-89
2021/10/29 18:01:20;;;;;;;54.33;10.45;;;11.70;99.90;;;;;;4964272;28;20406;-88
2021/10/29 18:03:48;;;;;;;30.02;11.60;;;11.60;99.90;;;;;;4958920;28;20059;-90
2021/10/29 18:06:20;;;;;;;36.67;9.65;;;11.60;99.90;;;;;;4990482;28;20061;-89
2021/10/29 18:09:02;;;;;;;28.48;10.30;;;10.50;99.90;;;;;;4970295;28;20047;-89
2021/10/29 18:11:34;;;;;;;27.77;9.90;;;11.60;99.90;;;;;;4938728;28;20051;-89
2021/10/29 18:14:07;;;;;;;31.08;9.13;;;11.70;99.90;;;;;;4975040;28;20051;-88
2021/10/29 18:16:36;;;;;;;44.17;10.90;;;11.60;99.90;;;;;;4597371;28;10000059;-89
2021/10/29 18:19:09;;;;;;;30.73;9.82;;;11.60;99.90;;;;;;4940978;28;20054;-91
2021/10/29 18:21:38;;;;;;;33.72;10.90;;;11.50;99.90;;;;;;4963766;28;20046;-90
2021/10/29 18:24:12;;;;;;;30.20;9.30;;;11.50;99.90;;;;;;4946724;28;20046;-87
2021/10/29 18:26:41;;;;;;;24.98;10.48;;;11.50;99.90;;;;;;4949171;28;20070;-90
2021/10/29 18:29:11;;;;;;;29.58;10.88;;;12.00;99.90;;;;;;4953696;28;20054;-88
2021/10/29 18:31:39;;;;;;;30.23;11.35;;;11.40;99.90;;;;;;4945795;29;20058;-90
2021/10/29 18:34:12;;;;;;;27.88;11.82;;;11.40;99.90;;;;;;4966335;28;20055;-91
2021/10/29 18:36:44;;;;;;;37.05;11.05;;;11.50;99.90;;;;;;4981064;28;20054;-88
2021/10/29 18:39:20;;;;;;;23.55;9.75;;;11.30;99.90;;;;;;4990954;28;20054;-90
2021/10/29 18:41:59;;;;;;;21.55;6.40;;;11.30;99.90;;;;;;4986819;28;20205;-91
2021/10/29 18:44:28;;;;;;;17.57;5.83;;;11.30;99.90;;;;;;4957195;28;20067;-91
2021/10/29 18:46:57;;;;;;;32.45;11.68;;;11.30;99.90;;;;;;4962385;28;20059;-90
2021/10/29 18:49:27;;;;;;;29.13;6.55;;;11.20;99.90;;;;;;4963345;28;20057;-88
2021/10/29 18:51:59;;;;;;;17.13;5.63;;;11.20;99.90;;;;;;4975387;28;20047;-90
2021/10/29 18:54:29;;;;;;;17.90;6.63;;;11.20;99.90;;;;;;4946256;28;20070;-89
2021/10/29 18:56:58;;;;;;;20.63;7.53;;;11.20;99.90;;;;;;4961707;28;20051;-88
2021/10/29 18:59:30;;;;;;;22.45;5.63;;;11.10;99.90;;;;;;4965405;28;20054;-89
2021/10/29 19:02:03;;;;;;;18.58;7.40;;;11.10;99.90;;;;;;4963284;28;20414;-91